Latest Weather Observations for Nullo Mountain

IDN60801

Issued at 11:35 pm EDT Friday 31 October 2014 (issued every 30 minutes, with the page automatically refreshed every 10 minutes)

About weather observations | Map of weather stations | Latest weather observations for NSW | Other Formats
Station Details ID: 062100 Name: NULLO MOUNTAIN AWS Lat: -32.72 Lon: 150.23 Height: 1130.0 m
Data from the previous 72 hours. | See also: Recent months at Nullo Mountain
Date/Time
EDT
Temp
°C
App
Temp
°C
Dew
Point
Rel
Hum
%
Delta-T
°C
Wind Press
QNH
hPa
Press
MSL
hPa
Rain
since 9 am
mm
Dir
 
Spd
km/h
Gust
km/h
Spd
kts
Gust
kts
31/11:30pm 17.0 12.4 11.1 68 3.4 NNW 26 41 14 22 - - 0.0
31/11:00pm 17.7 12.6 10.6 63 4.0 NW 28 52 15 28 - - 0.0
31/10:30pm 18.4 13.9 10.0 58 4.7 NW 24 46 13 25 - - 0.0
31/10:00pm 20.3 15.2 7.7 44 6.9 WNW 24 57 13 31 - - 0.0
31/09:30pm 22.7 18.4 3.3 28 9.9 NNW 15 22 8 12 - - 0.0
31/09:00pm 22.4 19.0 2.0 26 10.1 N 9 15 5 8 - - 0.0
31/08:30pm 22.4 19.5 1.4 25 10.3 N 6 11 3 6 - - 0.0
31/08:00pm 22.4 19.8 0.9 24 10.5 NNW 4 6 2 3 - - 0.0
31/07:30pm 22.8 20.2 1.2 24 10.6 NNW 4 7 2 4 - - 0.0
31/07:00pm 24.3 21.2 1.2 22 11.5 NW 7 13 4 7 - - 0.0
31/06:30pm 24.5 20.8 2.6 24 11.2 NNW 11 19 6 10 - - 0.0
31/06:00pm 26.0 22.4 2.7 22 12.0 NW 11 20 6 11 - - 0.0
31/05:30pm 25.2 21.3 1.3 21 11.9 NW 11 20 6 11 - - 0.0
31/05:00pm 26.3 22.1 1.6 20 12.5 NW 13 20 7 11 - - 0.0
31/04:30pm 26.2 22.5 2.2 21 12.3 NW 11 26 6 14 - - 0.0
31/04:00pm 25.6 19.8 -1.2 17 12.8 NNW 19 33 10 18 - - 0.0
31/03:30pm 26.3 22.0 0.9 19 12.7 NNW 13 22 7 12 - - 0.0
31/03:00pm 27.3 23.0 0.9 18 13.3 N 13 30 7 16 - - 0.0
31/02:30pm 27.0 23.6 2.1 20 12.8 NNW 9 24 5 13 - - 0.0
31/02:00pm 25.9 20.5 1.2 20 12.4 NNW 19 32 10 17 - - 0.0
31/01:30pm 25.9 20.6 1.9 21 12.2 NNW 19 32 10 17 - - 0.0
31/01:00pm 25.9 21.7 1.9 21 12.2 NNW 13 30 7 16 - - 0.0
31/12:30pm 25.1 20.9 1.9 22 11.7 NW 13 24 7 13 - - 0.0
31/12:00pm 24.0 18.8 0.4 21 11.5 NNW 17 37 9 20 - - 0.0
31/11:30am 24.4 20.7 2.5 24 11.1 NNW 11 24 6 13 - - 0.0
31/11:00am 23.3 19.7 2.7 26 10.4 N 11 22 6 12 - - 0.0
31/10:30am 22.4 18.3 2.0 26 10.1 N 13 20 7 11 - - 0.0
31/10:00am 22.2 18.3 3.3 29 9.6 N 13 20 7 11 - - 0.0
31/09:30am 21.1 16.3 2.4 29 9.3 N 17 26 9 14 - - 0.0
31/09:00am 20.7 16.9 3.9 33 8.6 N 13 20 7 11 - - 0.0
31/08:30am 20.4 17.3 3.6 33 8.5 NNE 9 17 5 9 - - 0.0
31/08:00am 19.6 16.6 4.1 36 7.9 NNE 9 15 5 8 - - 0.0
31/07:30am 18.5 15.1 3.9 38 7.3 NNE 11 17 6 9 - - 0.0
31/07:00am 17.3 13.9 3.9 41 6.7 NNE 11 19 6 10 - - 0.0
31/06:30am 15.8 12.7 3.6 44 6.0 NNE 9 15 5 8 - - 0.0
31/06:00am 13.1 10.5 1.1 44 5.5 NNE 4 11 2 6 - - 0.0
31/05:30am 14.1 11.8 0.7 40 6.1 NE 2 6 1 3 - - 0.0
31/05:00am 14.7 12.4 0.5 38 6.5 NE 2 4 1 2 - - 0.0
31/04:30am 15.4 13.4 0.0 35 7.0 CALM 0 0 0 0 - - 0.0
31/04:00am 15.4 13.5 0.4 36 6.8 CALM 0 0 0 0 - - 0.0
31/03:30am 15.2 13.3 0.6 37 6.7 CALM 0 0 0 0 - - 0.0
31/03:00am 15.4 13.5 0.4 36 6.8 CALM 0 0 0 0 - - 0.0
31/02:30am 15.6 13.7 0.6 36 6.9 CALM 0 0 0 0 - - 0.0
31/02:00am 15.2 13.3 0.6 37 6.7 CALM 0 0 0 0 - - 0.0
31/01:30am 15.2 13.3 0.6 37 6.7 CALM 0 0 0 0 - - 0.0
31/01:00am 15.3 13.4 0.7 37 6.7 CALM 0 0 0 0 - - 0.0
31/12:30am 14.7 12.1 0.9 39 6.3 ESE 4 4 2 2 - - 0.0
31/12:00am 14.3 11.9 2.2 44 5.7 SE 4 6 2 3 - - 0.0
 
Date/Time
EDT
Temp
°C
App
Temp
°C
Dew
Point
Rel
Hum
%
Delta-T
°C
Wind Press
QNH
hPa
Press
MSL
hPa
Rain
since 9 am
mm
Dir
 
Spd
km/h
Gust
km/h
Spd
kts
Gust
kts
30/11:30pm 15.2 12.7 1.4 39 6.4 SE 4 4 2 2 - - 0.0
30/11:00pm 14.6 11.7 1.2 40 6.2 S 6 6 3 3 - - 0.0
30/10:30pm 14.8 12.2 1.0 39 6.3 S 4 6 2 3 - - 0.0
30/10:00pm 16.5 13.5 0.6 34 7.4 SSE 6 7 3 4 - - 0.0
30/09:30pm 16.4 13.3 0.1 33 7.5 S 6 6 3 3 - - 0.0
30/09:00pm 18.0 15.6 -0.3 29 8.4 SSW 2 6 1 3 - - 0.0
30/08:30pm 18.3 15.5 -0.5 28 8.6 SW 4 7 2 4 - - 0.0
30/08:00pm 18.6 15.8 -0.7 27 8.8 WSW 4 9 2 5 - - 0.0
30/07:30pm 19.6 16.7 -0.9 25 9.4 WSW 4 7 2 4 - - 0.0
30/07:00pm 20.8 17.3 -1.1 23 10.1 WSW 7 13 4 7 - - 0.0
30/06:30pm 21.9 17.3 -0.8 22 10.7 W 13 24 7 13 - - 0.0
30/06:00pm 22.7 18.2 -0.1 22 10.9 WSW 13 20 7 11 - - 0.0
30/05:30pm 23.0 19.5 1.4 24 10.7 WSW 9 17 5 9 - - 0.0
30/05:00pm 23.2 19.2 0.3 22 11.1 WSW 11 32 6 17 - - 0.0
30/04:30pm 23.4 18.7 1.1 23 11.0 W 15 22 8 12 - - 0.0
30/04:00pm 23.9 20.6 2.7 25 10.8 W 9 20 5 11 - - 0.0
30/03:30pm 23.5 19.2 1.2 23 11.0 WSW 13 22 7 12 - - 0.0
30/03:00pm 23.1 19.3 2.0 25 10.5 WSW 11 24 6 13 - - 0.0
30/02:30pm 23.5 19.9 2.9 26 10.5 W 11 24 6 13 - - 0.0
30/02:00pm 21.9 18.1 1.6 26 10.0 W 11 24 6 13 - - 0.0
30/01:30pm 21.8 18.0 3.9 31 9.2 WSW 13 24 7 13 - - 0.0
30/01:00pm 20.9 17.7 5.3 36 8.2 WSW 11 19 6 10 - - 0.0
30/12:30pm 20.4 16.9 3.6 33 8.5 WSW 11 20 6 11 - - 0.0
30/12:00pm 20.5 17.8 5.7 38 7.8 W 9 17 5 9 - - 0.0
30/11:30am 20.7 18.1 5.9 38 7.8 W 9 19 5 10 - - 0.0
30/11:00am 19.9 16.9 4.0 35 8.1 WNW 9 17 5 9 - - 0.0
30/10:30am 19.6 16.7 6.4 42 7.0 WSW 11 22 6 12 - - 0.0
30/10:00am 19.3 17.1 6.1 42 6.9 W 7 13 4 7 - - 0.0
30/09:30am 17.6 13.9 4.2 41 6.7 WSW 13 26 7 14 - - 0.0
30/09:00am 17.4 14.5 4.4 42 6.5 W 9 15 5 8 - - 0.0
30/08:30am 16.7 14.6 5.9 49 5.6 WNW 6 11 3 6 - - 0.0
30/08:00am 16.0 14.2 5.6 50 5.3 WNW 4 7 2 4 - - 0.0
30/07:30am 14.9 12.9 4.3 49 5.2 WNW 4 11 2 6 - - 0.0
30/07:00am 13.7 11.2 3.5 50 4.9 W 6 9 3 5 - - 0.0
30/06:30am 12.6 10.3 3.0 52 4.5 W 4 7 2 4 - - 0.0
30/06:00am 12.2 9.9 2.9 53 4.4 W 4 7 2 4 - - 0.0
30/05:30am 12.3 10.1 3.3 54 4.3 W 4 7 2 4 - - 0.0
30/05:00am 11.5 9.6 3.0 56 4.0 W 2 6 1 3 - - 0.0
30/04:30am 12.0 10.7 4.0 58 3.8 CALM 0 4 0 2 - - 0.0
30/04:00am 12.2 10.6 4.4 59 3.8 WSW 2 6 1 3 - - 0.0
30/03:30am 12.5 11.0 5.0 60 3.7 W 2 4 1 2 - - 0.0
30/03:00am 12.7 10.8 4.9 59 3.8 SW 4 6 2 3 - - 0.0
30/02:30am 13.2 11.8 5.4 59 3.9 WSW 2 6 1 3 - - 0.0
30/02:00am 12.9 11.5 5.6 61 3.6 SSW 2 6 1 3 - - 0.0
30/01:30am 12.8 10.7 5.7 62 3.6 SSW 6 9 3 5 - - 0.0
30/01:00am 13.1 11.8 5.8 61 3.7 SSW 2 6 1 3 - - 0.0
30/12:30am 13.8 12.1 5.7 58 4.1 SSW 4 7 2 4 - - 0.0
30/12:00am 14.1 11.8 4.9 54 4.6 SSW 6 9 3 5 - - 0.0
 
Date/Time
EDT
Temp
°C
App
Temp
°C
Dew
Point
Rel
Hum
%
Delta-T
°C
Wind Press
QNH
hPa
Press
MSL
hPa
Rain
since 9 am
mm
Dir
 
Spd
km/h
Gust
km/h
Spd
kts
Gust
kts
29/11:30pm 14.5 12.2 4.8 52 4.8 SSW 6 11 3 6 - - 0.0
29/11:00pm 14.5 12.2 4.8 52 4.8 SW 6 11 3 6 - - 0.0
29/10:30pm 14.8 12.9 4.8 51 5.0 SSW 4 7 2 4 - - 0.0
29/10:00pm 14.9 12.6 4.6 50 5.1 S 6 7 3 4 - - 0.0
29/09:30pm 15.3 12.9 4.4 48 5.4 SSW 6 9 3 5 - - 0.0
29/09:00pm 15.8 13.8 4.5 47 5.6 SW 4 9 2 5 - - 0.0
29/08:30pm 14.4 12.8 4.4 51 4.9 SW 2 4 1 2 - - 0.0
29/08:00pm 14.7 12.6 3.8 48 5.3 S 4 6 2 3 - - 0.0
29/07:30pm 15.8 13.7 3.9 45 5.9 S 4 6 2 3 - - 0.0
29/07:00pm 18.7 16.4 2.9 35 7.8 SSW 4 6 2 3 - - 0.0
29/06:30pm 20.0 17.4 3.3 33 8.4 SW 6 9 3 5 - - 0.0
29/06:00pm 20.5 17.7 3.3 32 8.6 WNW 7 15 4 8 - - 0.0
29/05:30pm 21.1 18.4 3.8 32 8.8 W 7 19 4 10 - - 0.0
29/05:00pm 21.1 18.7 5.1 35 8.4 W 7 15 4 8 - - 0.0
29/04:30pm 20.8 18.0 5.2 36 8.1 WSW 9 19 5 10 - - 0.0
29/04:00pm 21.3 18.6 5.6 36 8.3 W 9 20 5 11 - - 0.0
29/03:30pm 21.6 19.4 6.3 37 8.2 WSW 7 17 4 9 - - 0.0
29/03:00pm 21.0 18.6 5.4 36 8.2 W 7 17 4 9 - - 0.0
29/02:30pm 20.6 18.7 6.5 40 7.5 NNW 6 15 3 8 - - 0.0
29/02:00pm 19.8 17.9 6.9 43 6.9 W 6 13 3 7 - - 0.0
29/01:30pm 19.7 17.6 6.8 43 6.9 NW 7 13 4 7 - - 0.0
29/01:00pm 18.5 16.5 7.0 47 6.1 ESE 7 13 4 7 - - 0.0
29/12:30pm 17.6 15.5 5.9 46 6.1 S 6 11 3 6 - - 0.0
29/12:00pm 16.8 14.4 4.2 43 6.3 S 6 11 3 6 - - 0.0
29/11:30am 16.4 14.2 6.2 51 5.3 SW 7 13 4 7 - - 0.0
29/11:00am 16.1 14.1 7.1 55 4.7 WSW 7 11 4 6 - - 0.0
29/10:30am 15.4 13.4 6.9 57 4.4 S 7 13 4 7 - - 0.0
29/10:00am 14.8 12.8 7.1 60 4.0 SW 7 9 4 5 - - 0.0
29/09:30am 13.7 11.1 6.1 60 3.9 SSW 9 15 5 8 - - 0.0
29/09:00am 12.7 10.0 5.6 62 3.5 SW 9 17 5 9 - - 0.0
29/08:30am 12.3 9.8 4.8 60 3.7 SSW 7 13 4 7 - - 0.0
29/08:00am 11.7 9.2 4.7 62 3.4 SSW 7 11 4 6 - - 0.0
29/07:30am 11.1 8.7 4.3 63 3.3 S 6 11 3 6 - - 0.0
29/07:00am 10.0 7.0 4.2 67 2.8 SSE 9 17 5 9 - - 0.0
29/06:30am 8.9 6.2 3.5 69 2.5 SSW 7 13 4 7 - - 0.0
29/06:00am 8.9 5.4 3.3 68 2.6 SSW 11 19 6 10 - - 0.0
29/05:30am 9.0 5.8 3.2 67 2.7 SW 9 19 5 10 - - 0.0
29/05:00am 8.6 6.0 3.2 69 2.5 SW 6 11 3 6 - - 0.0
29/04:30am 8.4 6.1 2.8 68 2.5 SW 4 6 2 3 - - 0.0
29/04:00am 8.6 5.9 2.8 67 2.6 SW 6 9 3 5 - - 0.0
29/03:30am 8.5 6.1 2.3 65 2.8 SSW 4 7 2 4 - - 0.0
29/03:00am 9.3 6.6 2.4 62 3.1 SSW 6 9 3 5 - - 0.0
29/02:30am 9.7 6.0 2.3 60 3.4 SW 11 19 6 10 - - 0.0
29/02:00am 10.2 5.7 2.1 57 3.7 WSW 15 26 8 14 - - 0.0
29/01:30am 10.5 5.2 1.6 54 4.0 WSW 19 35 10 19 - - 0.0
29/01:00am 10.8 5.8 1.4 52 4.2 WSW 17 28 9 15 - - 0.0
29/12:30am 11.0 5.6 1.0 50 4.5 WSW 19 30 10 16 - - 0.0
29/12:00am 11.1 6.0 0.8 49 4.6 WSW 17 26 9 14 - - 0.0

Other Formats:

Comma delimited format used in spreadsheet applications
http://www.bom.gov.au/fwo/IDN60801/IDN60801.94754.axf

JavaScript Object Notation format (JSON) in row-major order
http://www.bom.gov.au/fwo/IDN60801/IDN60801.94754.json